createdAt,value
2022-08-31T00:01:36.432Z,100.00
2022-08-31T00:05:39.966Z,100.00
2022-08-31T00:09:43.110Z,100.00
2022-08-31T00:13:49.345Z,100.00
2022-08-31T00:17:53.707Z,100.00
2022-08-31T00:21:56.881Z,100.00
2022-08-31T00:26:00.934Z,100.00
2022-08-31T00:30:06.137Z,100.00
2022-08-31T00:34:09.350Z,100.00
2022-08-31T00:38:13.471Z,100.00
2022-08-31T00:42:17.449Z,100.00
2022-08-31T00:46:25.016Z,100.00
2022-08-31T00:50:29.074Z,100.00
2022-08-31T00:54:38.212Z,100.00
2022-08-31T00:58:41.516Z,100.00
2022-08-31T01:02:46.147Z,100.00
2022-08-31T01:06:50.688Z,100.00
2022-08-31T01:10:53.779Z,100.00
2022-08-31T01:14:58.308Z,100.00
2022-08-31T01:19:06.661Z,100.00
2022-08-31T01:23:14.036Z,100.00
2022-08-31T01:27:20.975Z,100.00
2022-08-31T01:31:30.658Z,100.00
2022-08-31T01:35:35.043Z,100.00
2022-08-31T01:39:39.528Z,100.00
2022-08-31T01:43:42.889Z,100.00
2022-08-31T01:47:46.559Z,100.00
2022-08-31T01:51:51.153Z,100.00
2022-08-31T01:55:56.161Z,100.00
2022-08-31T02:00:00.577Z,100.00
2022-08-31T02:04:22.782Z,100.00
2022-08-31T02:08:27.140Z,100.00
2022-08-31T02:12:31.531Z,100.00
2022-08-31T02:16:35.154Z,100.00
2022-08-31T02:20:39.210Z,100.00
2022-08-31T02:24:42.737Z,100.00
2022-08-31T02:28:47.599Z,100.00
2022-08-31T02:32:50.676Z,100.00
2022-08-31T02:36:53.711Z,100.00
2022-08-31T02:40:57.139Z,100.00
2022-08-31T02:45:02.315Z,100.00
2022-08-31T02:49:08.377Z,100.00
2022-08-31T02:53:14.117Z,100.00
2022-08-31T02:57:26.499Z,100.00
2022-08-31T03:01:31.244Z,100.00
2022-08-31T03:10:51.160Z,100.00
2022-08-31T03:14:54.686Z,100.00
2022-08-31T03:18:59.340Z,100.00
2022-08-31T03:23:03.575Z,100.00
2022-08-31T03:27:08.459Z,100.00
2022-08-31T03:31:11.653Z,100.00
2022-08-31T03:35:18.323Z,100.00
2022-08-31T03:39:22.093Z,100.00
2022-08-31T03:43:25.712Z,100.00
2022-08-31T03:47:29.502Z,100.00
2022-08-31T03:51:35.905Z,100.00
2022-08-31T03:55:42.351Z,100.00
2022-08-31T03:59:46.644Z,100.00
2022-08-31T04:03:56.393Z,100.00
2022-08-31T04:08:25.599Z,100.00
2022-08-31T04:12:47.227Z,100.00
2022-08-31T04:17:10.549Z,100.00
2022-08-31T04:21:22.945Z,100.00
2022-08-31T04:25:28.705Z,100.00
2022-08-31T04:29:32.033Z,100.00
2022-08-31T04:33:35.259Z,100.00
2022-08-31T04:37:46.331Z,100.00
2022-08-31T04:41:51.709Z,100.00
2022-08-31T04:45:55.619Z,100.00
2022-08-31T04:49:58.809Z,100.00
2022-08-31T04:54:04.155Z,100.00
2022-08-31T04:58:08.779Z,100.00
2022-08-31T05:02:11.957Z,100.00
2022-08-31T05:06:19.250Z,100.00
2022-08-31T05:10:24.822Z,100.00
2022-08-31T05:14:29.555Z,100.00
2022-08-31T05:18:41.879Z,100.00
2022-08-31T05:22:45.079Z,100.00
2022-08-31T05:26:50.358Z,100.00
2022-08-31T05:30:56.253Z,100.00
2022-08-31T05:35:09.950Z,100.00
2022-08-31T05:39:14.804Z,100.00
2022-08-31T05:43:18.130Z,100.00
2022-08-31T05:47:22.542Z,100.00
2022-08-31T05:51:25.978Z,100.00
2022-08-31T05:55:29.269Z,100.00
2022-08-31T05:59:32.830Z,100.00
2022-08-31T06:03:38.224Z,100.00
2022-08-31T06:07:41.574Z,100.00
2022-08-31T06:11:51.475Z,100.00
2022-08-31T06:15:56.016Z,100.00
2022-08-31T06:20:00.513Z,100.00
2022-08-31T06:24:05.493Z,100.00
2022-08-31T06:28:14.413Z,100.00
2022-08-31T06:32:27.056Z,100.00
2022-08-31T06:36:38.373Z,100.00
2022-08-31T06:41:15.979Z,100.00
2022-08-31T06:45:39.121Z,100.00
2022-08-31T06:50:00.909Z,100.00
2022-08-31T06:54:28.093Z,100.00
2022-08-31T06:58:53.997Z,100.00
2022-08-31T07:03:35.516Z,100.00
2022-08-31T07:07:38.760Z,100.00
2022-08-31T07:11:45.774Z,100.00
2022-08-31T07:15:49.262Z,100.00
2022-08-31T07:19:52.739Z,100.00
2022-08-31T07:24:02.366Z,100.00
2022-08-31T07:28:07.173Z,100.00
2022-08-31T07:32:13.227Z,100.00
2022-08-31T07:36:18.921Z,100.00
2022-08-31T07:40:57.935Z,100.00
2022-08-31T07:45:06.394Z,100.00
2022-08-31T07:49:13.892Z,100.00
2022-08-31T07:53:27.417Z,100.00
2022-08-31T07:57:54.809Z,100.00
2022-08-31T08:02:02.467Z,100.00
2022-08-31T08:06:12.950Z,100.00
2022-08-31T08:10:41.036Z,100.00
2022-08-31T08:15:08.757Z,100.00
2022-08-31T08:19:37.376Z,100.00
2022-08-31T08:23:40.793Z,100.00
2022-08-31T08:28:29.135Z,100.00
2022-08-31T08:32:32.487Z,100.00
2022-08-31T08:36:40.958Z,100.00
2022-08-31T08:40:45.141Z,100.00
2022-08-31T08:44:49.421Z,100.00
2022-08-31T08:48:55.891Z,100.00
2022-08-31T08:53:05.398Z,100.00
2022-08-31T08:57:15.032Z,100.00
2022-08-31T09:01:25.835Z,100.00
2022-08-31T09:05:48.639Z,100.00
2022-08-31T09:10:15.449Z,100.00
2022-08-31T09:14:34.335Z,100.00
2022-08-31T09:18:48.288Z,100.00
2022-08-31T09:22:54.651Z,100.00
2022-08-31T09:27:17.438Z,100.00
2022-08-31T09:31:37.560Z,100.00
2022-08-31T09:35:41.469Z,100.00
2022-08-31T09:39:48.978Z,100.00
2022-08-31T09:43:55.409Z,100.00
2022-08-31T09:48:01.492Z,100.00
2022-08-31T09:52:45.908Z,100.00
2022-08-31T09:56:55.646Z,100.00
2022-08-31T10:01:13.993Z,100.00
2022-08-31T10:05:32.454Z,100.00
2022-08-31T10:09:41.151Z,100.00
2022-08-31T10:13:49.809Z,100.00
2022-08-31T10:18:03.236Z,100.00
2022-08-31T10:22:11.615Z,100.00
2022-08-31T10:26:19.150Z,100.00
2022-08-31T10:30:27.626Z,100.00
2022-08-31T10:34:55.314Z,100.00
2022-08-31T10:38:59.063Z,100.00
2022-08-31T10:43:14.279Z,100.00
2022-08-31T10:47:24.935Z,100.00
2022-08-31T10:51:48.138Z,100.00
2022-08-31T10:56:02.332Z,100.00
2022-08-31T11:00:08.804Z,100.00
2022-08-31T11:04:34.577Z,100.00
2022-08-31T11:08:49.088Z,100.00
2022-08-31T11:12:57.782Z,100.00
2022-08-31T11:17:21.663Z,100.00
2022-08-31T11:21:46.582Z,100.00
2022-08-31T11:26:34.586Z,100.00
2022-08-31T11:30:45.856Z,100.00
2022-08-31T11:34:56.599Z,100.00
2022-08-31T11:39:44.541Z,99.14
2022-08-31T11:43:53.871Z,100.00
2022-08-31T11:47:57.165Z,100.00
2022-08-31T11:52:07.748Z,97.76
2022-08-31T11:56:14.530Z,97.09
2022-08-31T12:00:21.310Z,100.00
2022-08-31T12:05:00.754Z,100.00
2022-08-31T12:09:21.272Z,100.00
2022-08-31T12:13:49.834Z,100.00
2022-08-31T12:18:17.361Z,100.00
2022-08-31T12:23:31.092Z,100.00
2022-08-31T12:27:46.291Z,100.00
2022-08-31T12:32:23.285Z,100.00
2022-08-31T12:36:30.159Z,100.00
2022-08-31T12:40:35.836Z,100.00
2022-08-31T12:44:42.927Z,100.00
2022-08-31T12:49:04.489Z,98.35
2022-08-31T12:53:36.285Z,93.55
2022-08-31T12:57:50.897Z,94.98
2022-08-31T13:01:54.556Z,99.80
2022-08-31T13:06:05.768Z,95.95
2022-08-31T13:10:13.009Z,96.19
2022-08-31T13:14:21.049Z,98.05
2022-08-31T13:18:27.331Z,100.00
2022-08-31T13:22:32.859Z,100.00
2022-08-31T13:26:38.630Z,100.00
2022-08-31T13:30:55.339Z,100.00
2022-08-31T13:35:03.044Z,100.00
2022-08-31T13:39:15.844Z,100.00
2022-08-31T13:43:30.633Z,100.00
2022-08-31T13:47:45.833Z,99.37
2022-08-31T13:52:05.762Z,98.94
2022-08-31T13:56:43.625Z,95.86
2022-08-31T14:00:50.403Z,95.44
2022-08-31T14:05:01.514Z,100.00
2022-08-31T14:09:17.051Z,100.00
2022-08-31T14:13:27.945Z,100.00
2022-08-31T14:17:34.282Z,100.00
2022-08-31T14:21:42.172Z,100.00
2022-08-31T14:25:45.256Z,99.98
2022-08-31T14:29:48.362Z,93.74
2022-08-31T14:34:23.456Z,95.67
2022-08-31T14:38:29.824Z,100.00
2022-08-31T14:42:36.901Z,100.00
2022-08-31T14:46:43.682Z,100.00
2022-08-31T14:50:48.904Z,100.00
2022-08-31T14:54:53.968Z,100.00
2022-08-31T14:58:58.822Z,100.00
2022-08-31T15:03:03.153Z,100.00
2022-08-31T15:07:10.079Z,100.00
2022-08-31T15:11:16.362Z,95.52
2022-08-31T15:15:21.270Z,93.09
2022-08-31T15:19:25.225Z,89.80
2022-08-31T15:23:29.839Z,86.27
2022-08-31T15:27:33.118Z,89.64
2022-08-31T15:31:36.346Z,93.85
2022-08-31T15:35:42.264Z,89.95
2022-08-31T15:39:49.445Z,92.84
2022-08-31T15:43:52.751Z,94.23
2022-08-31T15:48:13.920Z,96.81
2022-08-31T15:52:19.339Z,97.45
2022-08-31T15:56:24.420Z,100.00
2022-08-31T16:00:29.213Z,100.00
2022-08-31T16:04:33.516Z,100.00
2022-08-31T16:08:38.274Z,99.49
2022-08-31T16:12:43.745Z,92.60
2022-08-31T16:16:50.503Z,92.56
2022-08-31T16:20:57.419Z,91.74
2022-08-31T16:25:01.593Z,91.13
2022-08-31T16:29:08.775Z,93.00
2022-08-31T16:33:12.379Z,93.33
2022-08-31T16:37:15.930Z,92.67
2022-08-31T16:41:20.096Z,95.45
2022-08-31T16:45:24.862Z,93.04
2022-08-31T16:49:40.443Z,95.54
2022-08-31T16:53:47.736Z,95.84
2022-08-31T16:57:51.315Z,94.09
2022-08-31T17:01:57.274Z,93.27
2022-08-31T17:06:01.715Z,93.48
2022-08-31T17:10:07.214Z,92.85
2022-08-31T17:14:13.674Z,95.65
2022-08-31T17:18:23.192Z,96.67
2022-08-31T17:22:32.666Z,96.27
2022-08-31T17:26:37.916Z,98.77
2022-08-31T17:30:44.903Z,99.47
2022-08-31T17:34:52.188Z,99.28
2022-08-31T17:39:00.460Z,100.00
2022-08-31T17:43:06.413Z,100.00
2022-08-31T17:47:10.757Z,100.00
2022-08-31T17:51:27.154Z,100.00
2022-08-31T17:55:32.238Z,100.00
2022-08-31T17:59:44.103Z,100.00
2022-08-31T18:03:47.373Z,100.00
2022-08-31T18:07:51.958Z,100.00
2022-08-31T18:11:55.979Z,100.00
2022-08-31T18:15:59.376Z,100.00
2022-08-31T18:20:03.619Z,100.00
2022-08-31T18:24:09.884Z,100.00
2022-08-31T18:28:21.590Z,100.00
2022-08-31T18:32:29.373Z,100.00
2022-08-31T18:36:39.061Z,100.00
2022-08-31T18:41:01.485Z,100.00
2022-08-31T18:45:19.597Z,100.00
2022-08-31T18:49:23.408Z,100.00
2022-08-31T18:53:30.238Z,100.00
2022-08-31T18:57:42.802Z,100.00
2022-08-31T19:01:52.900Z,100.00
2022-08-31T19:05:57.510Z,100.00
2022-08-31T19:10:00.686Z,100.00
2022-08-31T19:14:05.518Z,100.00
2022-08-31T19:18:09.055Z,100.00
2022-08-31T19:22:13.094Z,100.00
2022-08-31T19:26:25.461Z,100.00
2022-08-31T19:30:30.326Z,100.00
2022-08-31T19:34:36.017Z,100.00
2022-08-31T19:38:42.109Z,100.00
2022-08-31T19:43:43.619Z,100.00
2022-08-31T19:47:24.437Z,100.00
2022-08-31T19:51:31.448Z,100.00
2022-08-31T19:55:34.840Z,100.00
2022-08-31T19:59:38.679Z,100.00
2022-08-31T20:03:43.115Z,100.00
2022-08-31T20:07:46.519Z,100.00
2022-08-31T20:11:50.507Z,100.00
2022-08-31T20:15:57.507Z,100.00
2022-08-31T20:20:03.510Z,100.00
2022-08-31T20:24:09.729Z,100.00
2022-08-31T20:28:15.233Z,100.00
2022-08-31T20:32:19.173Z,100.00
2022-08-31T20:36:27.268Z,100.00
2022-08-31T20:40:30.637Z,100.00
2022-08-31T20:44:37.718Z,100.00
2022-08-31T20:48:58.442Z,100.00
2022-08-31T20:53:09.052Z,100.00
2022-08-31T20:57:14.710Z,100.00
2022-08-31T21:01:18.346Z,100.00
2022-08-31T21:05:38.938Z,100.00
2022-08-31T21:09:45.913Z,100.00
2022-08-31T21:13:50.146Z,100.00
2022-08-31T21:17:57.178Z,100.00
2022-08-31T21:22:01.353Z,100.00
2022-08-31T21:26:08.826Z,100.00
2022-08-31T21:30:13.574Z,100.00
2022-08-31T21:34:19.515Z,100.00
2022-08-31T21:38:22.721Z,100.00
2022-08-31T21:42:27.759Z,100.00
2022-08-31T21:46:31.394Z,100.00
2022-08-31T21:50:35.043Z,100.00
2022-08-31T21:54:44.781Z,100.00
2022-08-31T21:58:53.798Z,100.00
2022-08-31T22:02:59.618Z,100.00
2022-08-31T22:07:03.836Z,100.00
2022-08-31T22:11:09.537Z,100.00
2022-08-31T22:15:16.896Z,100.00
2022-08-31T22:19:23.861Z,100.00
2022-08-31T22:23:27.162Z,100.00
2022-08-31T22:27:30.680Z,100.00
2022-08-31T22:31:37.433Z,100.00
2022-08-31T22:35:41.470Z,100.00
2022-08-31T22:39:44.931Z,100.00
2022-08-31T22:43:48.418Z,100.00
2022-08-31T22:47:55.482Z,100.00
2022-08-31T22:51:58.846Z,100.00
2022-08-31T22:56:03.097Z,100.00
2022-08-31T23:00:12.023Z,100.00
2022-08-31T23:04:20.513Z,100.00
2022-08-31T23:08:25.272Z,100.00
2022-08-31T23:12:28.708Z,100.00
2022-08-31T23:16:34.723Z,100.00
2022-08-31T23:20:41.874Z,100.00
2022-08-31T23:24:47.395Z,100.00
2022-08-31T23:28:53.061Z,100.00
2022-08-31T23:32:58.826Z,100.00
2022-08-31T23:37:07.970Z,100.00
2022-08-31T23:41:13.754Z,100.00
2022-08-31T23:45:17.085Z,100.00
2022-08-31T23:49:23.506Z,100.00
2022-08-31T23:53:28.323Z,100.00
2022-08-31T23:57:33.664Z,100.00
